Spain flag

🕓

Taiwán está en tendencia en Twitter - Los tweets más populares | Spain

On May 17th, 2019 in #Taiwan, #LoveWon. We took a big step towards true equality, and made Taiwan a better country. 🏳️‍🌈.

Taiwán Twitter

Taiwán Foto

Taiwán - Las mejores reacciones de Twitter

2019/05/20 03:00 RCTP 200300Z 05022KT 0600 R05L/1400U R05R/1000U +TSRA SCT003 BKN005 SCT012CB BKN020 23/23 Q1009 WS R05R TEMPO 1500 TSRA RMK TS SW MOV SE A2981 RA AMT.

2019/05/20 03:05 RCSS 200305Z 09009KT 2000 VCTS SHRA SCT004 FEW012CB BKN015 OVC040 23/23 Q1009 NOSIG RMK TS S-N MOV S A2980.

2019/05/20 03:00 RCNN 200300Z 25008KT 9999 VCSH FEW010 FEW012TCU SCT030 BKN050 31/26 Q1008 NOSIG RMK A2977 VCSH NE TCU E.

2019/05/20 03:00 RCMQ 200300Z 14005KT 5000 -RA BR SCT006 FEW010CB BKN012 BKN030 26/25 Q1008 NOSIG RMK A2978 RA AMT CB S.

2019/05/20 03:00 RCKH 200300Z 26011KT 230V290 9999 FEW010 SCT018 BKN120 30/27 Q1008 NOSIG RMK 26011KT/R09 A2977.

@rohitgiri0 Japan had no interest in making India a colony. Manchuria was never a Japanese colony. Korea forced Japan to annex it by assassinating Japanese Resident-General. Taiwan was given to Japan by Qing, as a settlement for Sino-Japanese War. It is still Japan, but occupied by Chinese..

a cl postou sobre o casamento lgbt ser aprovado em taiwan e a chuva de homofobia nos comentários é ridícula.

We carried a test in a VMS Pb-Zn deposit using high density 3D AMT with ...... a Study of Electrical Structures of Shanchiao Fault in Taiwan Using Audio-Frequency Magnetotelluric (amt) Method ... the AMT data from six soundings at Wugu site, nine soundings at XinZhuang .......

Taiwan just became the first in Asia to legalize same-sex marriage 🏳️‍🌈.

Thank you for your gracious support. If you wish to know more about #Taiwan, I invite you to visit this #IslandOfResilience, and meet the people who truly live up to democratic values..

Taiwán Foto

Taiwan Leader Stakes Career on Landmark Gay Marriage Vote.

BBC News - Taiwan gay marriage: Parliament legalises same-sex unions.

Taiwan se convirtió en el primer país asiático en legalizar el matrimonio igualitario.

Taiwan stands proud at the top of my bucket list (in the subcategory, visit Asian countries)..

Hemos dado un gran paso hacia una verdadera igualdad y convertido Taiwán en un país mejor..

@washingtonpost This will be the beginning of the end of Taiwan. Sorry to see them go..

Taiwan passes same-sex marriage bill, becoming first in Asia to do so.

I’m already planning my trips ahead baka gusto nyo kong samahan? Hahaha. June: undecided July: somewhere near lang Aug: Hkg-Macau Sept: Thailand balak ko Oct: baka Sg or Taiwan Nov: Bali? Not sure pa Dec: UAE kaya? Pm nyo ko! HAHAHA.

‘Men in skirts’ events in Taiwan go viral as government legalises same-sex marriage.

Taiwán Foto

Notícias boas demais nesses tempos para serem lidas rapidamente: Taiwan se torna o PRIMEIRO país da Ásia a legalizar o casamento entre pessoas do mesmo sexo!! 🏳️‍🌈.

Taiwán Foto

Taiwan becomes the first in Asia to make same-sex marriage legal.

台湾 同性婚認める法案可決 アジアで初 | NHKニュース.

Taiwan Expo 2019 Kick-Starts in New Delhi; Expected to Boost Trade Ties Between the Two….

🤙🏾 Taiwan becomes the first in Asia to make same-sex marriage legal.

On May 17th, 2019 in #Taiwan, #LoveWon. We took a big step towards true equality, and made Taiwan a better country. 🏳️‍🌈.

Spain Principales Tendencias